sensor_id;sensor_type;location;lat;lon;timestamp;temperature;humidity
12452;DHT22;6291;48.924;12.204;2023-07-29T00:02:09;17.50;99.90
12452;DHT22;6291;48.924;12.204;2023-07-29T00:07:14;17.50;99.90
12452;DHT22;6291;48.924;12.204;2023-07-29T00:12:18;17.30;99.90
12452;DHT22;6291;48.924;12.204;2023-07-29T00:17:21;17.20;99.90
12452;DHT22;6291;48.924;12.204;2023-07-29T00:22:26;17.30;99.90
12452;DHT22;6291;48.924;12.204;2023-07-29T00:27:29;17.30;99.90
12452;DHT22;6291;48.924;12.204;2023-07-29T00:32:34;17.30;99.90
12452;DHT22;6291;48.924;12.204;2023-07-29T00:37:39;17.20;99.90
12452;DHT22;6291;48.924;12.204;2023-07-29T00:42:45;17.20;99.90
12452;DHT22;6291;48.924;12.204;2023-07-29T00:47:49;17.30;99.90
12452;DHT22;6291;48.924;12.204;2023-07-29T00:52:54;17.20;99.90
12452;DHT22;6291;48.924;12.204;2023-07-29T00:57:58;17.20;99.90
12452;DHT22;6291;48.924;12.204;2023-07-29T01:03:01;17.20;99.90
12452;DHT22;6291;48.924;12.204;2023-07-29T01:08:12;17.20;99.90
12452;DHT22;6291;48.924;12.204;2023-07-29T01:13:25;17.20;99.90
12452;DHT22;6291;48.924;12.204;2023-07-29T01:18:32;17.20;99.90
12452;DHT22;6291;48.924;12.204;2023-07-29T01:23:37;17.10;99.90
12452;DHT22;6291;48.924;12.204;2023-07-29T01:28:40;17.10;99.90
12452;DHT22;6291;48.924;12.204;2023-07-29T01:33:52;17.10;99.90
12452;DHT22;6291;48.924;12.204;2023-07-29T01:39:01;17.00;99.90
12452;DHT22;6291;48.924;12.204;2023-07-29T01:44:06;17.00;99.90
12452;DHT22;6291;48.924;12.204;2023-07-29T01:49:09;17.10;99.90
12452;DHT22;6291;48.924;12.204;2023-07-29T01:54:14;17.00;99.90
12452;DHT22;6291;48.924;12.204;2023-07-29T01:59:17;17.00;99.90
12452;DHT22;6291;48.924;12.204;2023-07-29T02:04:21;17.00;99.90
12452;DHT22;6291;48.924;12.204;2023-07-29T02:09:26;17.00;99.90
12452;DHT22;6291;48.924;12.204;2023-07-29T02:14:29;17.00;99.90
12452;DHT22;6291;48.924;12.204;2023-07-29T02:19:32;17.00;99.90
12452;DHT22;6291;48.924;12.204;2023-07-29T02:24:37;17.10;99.90
12452;DHT22;6291;48.924;12.204;2023-07-29T02:29:41;17.00;99.90
12452;DHT22;6291;48.924;12.204;2023-07-29T02:34:44;17.00;99.90
12452;DHT22;6291;48.924;12.204;2023-07-29T02:40:00;16.90;99.90
12452;DHT22;6291;48.924;12.204;2023-07-29T02:45:04;16.90;99.90
12452;DHT22;6291;48.924;12.204;2023-07-29T02:50:12;16.80;99.90
12452;DHT22;6291;48.924;12.204;2023-07-29T02:55:16;16.80;99.90
12452;DHT22;6291;48.924;12.204;2023-07-29T03:00:20;16.70;99.90
12452;DHT22;6291;48.924;12.204;2023-07-29T03:05:23;16.60;99.90
12452;DHT22;6291;48.924;12.204;2023-07-29T03:10:28;16.50;99.90
12452;DHT22;6291;48.924;12.204;2023-07-29T03:15:32;16.50;99.90
12452;DHT22;6291;48.924;12.204;2023-07-29T03:20:36;14.40;99.90
12452;DHT22;6291;48.924;12.204;2023-07-29T03:25:40;16.50;99.90
12452;DHT22;6291;48.924;12.204;2023-07-29T03:30:44;16.40;99.90
12452;DHT22;6291;48.924;12.204;2023-07-29T03:35:47;16.40;99.90
12452;DHT22;6291;48.924;12.204;2023-07-29T03:40:52;16.40;99.90
12452;DHT22;6291;48.924;12.204;2023-07-29T03:45:56;16.30;99.90
12452;DHT22;6291;48.924;12.204;2023-07-29T03:50:59;13.40;99.90
12452;DHT22;6291;48.924;12.204;2023-07-29T03:56:04;16.20;99.90
12452;DHT22;6291;48.924;12.204;2023-07-29T04:01:08;16.30;99.90
12452;DHT22;6291;48.924;12.204;2023-07-29T04:06:12;16.30;99.90
12452;DHT22;6291;48.924;12.204;2023-07-29T04:11:16;16.30;99.90
12452;DHT22;6291;48.924;12.204;2023-07-29T04:16:20;16.50;99.90
12452;DHT22;6291;48.924;12.204;2023-07-29T04:21:23;16.50;99.90
12452;DHT22;6291;48.924;12.204;2023-07-29T04:26:28;16.50;99.90
12452;DHT22;6291;48.924;12.204;2023-07-29T04:31:32;16.50;99.90
12452;DHT22;6291;48.924;12.204;2023-07-29T04:36:35;16.50;99.90
12452;DHT22;6291;48.924;12.204;2023-07-29T04:41:41;16.70;99.90
12452;DHT22;6291;48.924;12.204;2023-07-29T04:46:44;16.80;99.90
12452;DHT22;6291;48.924;12.204;2023-07-29T04:51:48;16.90;99.90
12452;DHT22;6291;48.924;12.204;2023-07-29T04:56:52;17.20;99.90
12452;DHT22;6291;48.924;12.204;2023-07-29T05:01:56;17.40;99.90
12452;DHT22;6291;48.924;12.204;2023-07-29T05:06:59;17.70;99.90
12452;DHT22;6291;48.924;12.204;2023-07-29T05:12:05;17.60;99.90
12452;DHT22;6291;48.924;12.204;2023-07-29T05:17:09;17.90;99.90
12452;DHT22;6291;48.924;12.204;2023-07-29T05:22:12;18.30;99.90
12452;DHT22;6291;48.924;12.204;2023-07-29T05:27:17;18.50;99.90
12452;DHT22;6291;48.924;12.204;2023-07-29T05:32:20;19.20;99.90
12452;DHT22;6291;48.924;12.204;2023-07-29T05:37:24;20.30;1.00
12452;DHT22;6291;48.924;12.204;2023-07-29T05:42:29;20.40;99.90
12452;DHT22;6291;48.924;12.204;2023-07-29T05:47:32;20.20;99.90
12452;DHT22;6291;48.924;12.204;2023-07-29T05:52:37;20.10;1.00
12452;DHT22;6291;48.924;12.204;2023-07-29T05:57:42;20.60;1.00
12452;DHT22;6291;48.924;12.204;2023-07-29T06:02:46;21.00;99.90
12452;DHT22;6291;48.924;12.204;2023-07-29T06:07:54;21.40;99.90
12452;DHT22;6291;48.924;12.204;2023-07-29T06:12:58;21.50;99.90
12452;DHT22;6291;48.924;12.204;2023-07-29T06:18:02;21.30;99.90
12452;DHT22;6291;48.924;12.204;2023-07-29T06:23:06;21.10;1.00
12452;DHT22;6291;48.924;12.204;2023-07-29T06:28:11;22.20;1.00
12452;DHT22;6291;48.924;12.204;2023-07-29T06:33:14;21.90;1.00
12452;DHT22;6291;48.924;12.204;2023-07-29T06:38:18;24.30;99.90
12452;DHT22;6291;48.924;12.204;2023-07-29T06:43:25;21.10;1.00
12452;DHT22;6291;48.924;12.204;2023-07-29T06:48:28;21.30;1.00
12452;DHT22;6291;48.924;12.204;2023-07-29T06:53:31;20.70;82.00
12452;DHT22;6291;48.924;12.204;2023-07-29T06:58:37;20.90;1.00
12452;DHT22;6291;48.924;12.204;2023-07-29T07:03:40;21.00;29.00
12452;DHT22;6291;48.924;12.204;2023-07-29T07:08:44;22.00;99.90
12452;DHT22;6291;48.924;12.204;2023-07-29T07:13:49;21.00;1.00
12452;DHT22;6291;48.924;12.204;2023-07-29T07:18:52;20.50;99.90
12452;DHT22;6291;48.924;12.204;2023-07-29T07:23:55;20.10;1.00
12452;DHT22;6291;48.924;12.204;2023-07-29T07:29:00;20.20;99.90
12452;DHT22;6291;48.924;12.204;2023-07-29T07:34:03;20.60;1.00
12452;DHT22;6291;48.924;12.204;2023-07-29T07:39:07;20.60;99.90
12452;DHT22;6291;48.924;12.204;2023-07-29T07:44:12;21.70;1.00
12452;DHT22;6291;48.924;12.204;2023-07-29T07:49:19;21.60;99.90
12452;DHT22;6291;48.924;12.204;2023-07-29T07:54:23;21.50;99.90
12452;DHT22;6291;48.924;12.204;2023-07-29T07:59:28;21.40;99.90
12452;DHT22;6291;48.924;12.204;2023-07-29T08:04:31;21.10;99.90
12452;DHT22;6291;48.924;12.204;2023-07-29T08:09:34;20.80;1.00
12452;DHT22;6291;48.924;12.204;2023-07-29T08:14:39;20.60;1.00
12452;DHT22;6291;48.924;12.204;2023-07-29T08:19:42;20.30;99.90
12452;DHT22;6291;48.924;12.204;2023-07-29T08:24:46;20.00;99.90
12452;DHT22;6291;48.924;12.204;2023-07-29T08:29:51;19.70;99.90
12452;DHT22;6291;48.924;12.204;2023-07-29T08:34:54;19.30;1.00
12452;DHT22;6291;48.924;12.204;2023-07-29T08:39:57;18.90;1.00
12452;DHT22;6291;48.924;12.204;2023-07-29T08:45:07;18.60;99.90
12452;DHT22;6291;48.924;12.204;2023-07-29T08:50:11;18.60;99.90
12452;DHT22;6291;48.924;12.204;2023-07-29T08:55:16;18.50;99.90
12452;DHT22;6291;48.924;12.204;2023-07-29T09:00:21;18.40;99.90
12452;DHT22;6291;48.924;12.204;2023-07-29T09:05:25;18.40;99.90
12452;DHT22;6291;48.924;12.204;2023-07-29T09:10:28;18.40;99.90
12452;DHT22;6291;48.924;12.204;2023-07-29T09:15:34;18.60;99.90
12452;DHT22;6291;48.924;12.204;2023-07-29T09:20:38;18.90;99.90
12452;DHT22;6291;48.924;12.204;2023-07-29T09:25:42;19.30;99.90
12452;DHT22;6291;48.924;12.204;2023-07-29T09:30:47;19.60;99.90
12452;DHT22;6291;48.924;12.204;2023-07-29T09:35:51;20.00;1.00
12452;DHT22;6291;48.924;12.204;2023-07-29T09:40:55;20.00;23.20
12452;DHT22;6291;48.924;12.204;2023-07-29T09:46:01;20.30;1.00
12452;DHT22;6291;48.924;12.204;2023-07-29T09:51:11;19.80;1.00
12452;DHT22;6291;48.924;12.204;2023-07-29T09:56:15;20.50;1.00
12452;DHT22;6291;48.924;12.204;2023-07-29T10:01:20;21.40;99.90
12452;DHT22;6291;48.924;12.204;2023-07-29T10:06:24;22.90;28.30
12452;DHT22;6291;48.924;12.204;2023-07-29T10:11:28;21.50;99.90
12452;DHT22;6291;48.924;12.204;2023-07-29T10:16:34;20.70;99.90
12452;DHT22;6291;48.924;12.204;2023-07-29T10:21:40;20.50;1.00
12452;DHT22;6291;48.924;12.204;2023-07-29T10:26:46;19.90;1.00
12452;DHT22;6291;48.924;12.204;2023-07-29T10:31:55;19.80;1.00
12452;DHT22;6291;48.924;12.204;2023-07-29T10:37:00;19.70;1.00
12452;DHT22;6291;48.924;12.204;2023-07-29T10:42:06;19.70;1.00
12452;DHT22;6291;48.924;12.204;2023-07-29T10:47:12;19.90;94.20
12452;DHT22;6291;48.924;12.204;2023-07-29T10:52:27;20.40;99.90
12452;DHT22;6291;48.924;12.204;2023-07-29T10:57:32;21.50;99.90
12452;DHT22;6291;48.924;12.204;2023-07-29T11:02:38;22.20;1.00
12452;DHT22;6291;48.924;12.204;2023-07-29T11:07:45;22.00;1.00
12452;DHT22;6291;48.924;12.204;2023-07-29T11:12:50;23.20;1.00
12452;DHT22;6291;48.924;12.204;2023-07-29T11:17:58;22.40;21.40
12452;DHT22;6291;48.924;12.204;2023-07-29T11:23:03;22.40;99.90
12452;DHT22;6291;48.924;12.204;2023-07-29T11:28:06;22.80;1.00
12452;DHT22;6291;48.924;12.204;2023-07-29T11:33:12;22.90;1.00
12452;DHT22;6291;48.924;12.204;2023-07-29T11:38:16;24.30;99.90
12452;DHT22;6291;48.924;12.204;2023-07-29T11:43:20;23.30;99.90
12452;DHT22;6291;48.924;12.204;2023-07-29T11:48:30;22.50;1.00
12452;DHT22;6291;48.924;12.204;2023-07-29T11:53:33;22.30;1.00
12452;DHT22;6291;48.924;12.204;2023-07-29T11:58:37;22.50;1.00
12452;DHT22;6291;48.924;12.204;2023-07-29T12:03:42;23.20;99.90
12452;DHT22;6291;48.924;12.204;2023-07-29T12:08:46;23.60;99.90
12452;DHT22;6291;48.924;12.204;2023-07-29T12:13:53;22.90;99.90
12452;DHT22;6291;48.924;12.204;2023-07-29T12:19:00;22.70;1.00
12452;DHT22;6291;48.924;12.204;2023-07-29T12:24:07;22.60;99.90
12452;DHT22;6291;48.924;12.204;2023-07-29T12:29:15;23.00;99.90
12452;DHT22;6291;48.924;12.204;2023-07-29T12:34:24;23.60;99.90
12452;DHT22;6291;48.924;12.204;2023-07-29T12:39:31;25.70;99.90
12452;DHT22;6291;48.924;12.204;2023-07-29T12:44:37;24.30;99.90
12452;DHT22;6291;48.924;12.204;2023-07-29T12:49:42;24.10;99.90
12452;DHT22;6291;48.924;12.204;2023-07-29T12:54:46;25.10;99.90
12452;DHT22;6291;48.924;12.204;2023-07-29T12:59:50;25.20;99.90
12452;DHT22;6291;48.924;12.204;2023-07-29T13:04:54;26.10;99.90
12452;DHT22;6291;48.924;12.204;2023-07-29T13:09:58;26.60;99.90
12452;DHT22;6291;48.924;12.204;2023-07-29T13:15:02;26.00;99.90
12452;DHT22;6291;48.924;12.204;2023-07-29T13:20:08;24.90;99.90
12452;DHT22;6291;48.924;12.204;2023-07-29T13:25:12;24.20;99.90
12452;DHT22;6291;48.924;12.204;2023-07-29T13:30:15;23.80;99.90
12452;DHT22;6291;48.924;12.204;2023-07-29T13:35:20;23.40;99.90
12452;DHT22;6291;48.924;12.204;2023-07-29T13:40:23;23.00;99.90
12452;DHT22;6291;48.924;12.204;2023-07-29T13:45:27;22.70;99.90
12452;DHT22;6291;48.924;12.204;2023-07-29T13:50:32;23.60;99.90
12452;DHT22;6291;48.924;12.204;2023-07-29T13:55:36;23.30;99.90
12452;DHT22;6291;48.924;12.204;2023-07-29T14:00:40;23.30;99.90
12452;DHT22;6291;48.924;12.204;2023-07-29T14:05:45;24.20;99.90
12452;DHT22;6291;48.924;12.204;2023-07-29T14:10:49;24.90;99.90
12452;DHT22;6291;48.924;12.204;2023-07-29T14:15:52;25.80;99.90
12452;DHT22;6291;48.924;12.204;2023-07-29T14:20:57;25.70;99.90
12452;DHT22;6291;48.924;12.204;2023-07-29T14:26:01;27.30;99.90
12452;DHT22;6291;48.924;12.204;2023-07-29T14:31:04;24.70;99.90
12452;DHT22;6291;48.924;12.204;2023-07-29T14:36:09;24.80;99.90
12452;DHT22;6291;48.924;12.204;2023-07-29T14:41:12;24.10;99.90
12452;DHT22;6291;48.924;12.204;2023-07-29T14:46:16;23.10;99.90
12452;DHT22;6291;48.924;12.204;2023-07-29T14:51:21;23.10;99.90
12452;DHT22;6291;48.924;12.204;2023-07-29T14:56:25;23.10;99.90
12452;DHT22;6291;48.924;12.204;2023-07-29T15:01:28;22.90;99.90
12452;DHT22;6291;48.924;12.204;2023-07-29T15:06:33;23.00;99.90
12452;DHT22;6291;48.924;12.204;2023-07-29T15:11:37;23.30;99.90
12452;DHT22;6291;48.924;12.204;2023-07-29T15:16:41;23.20;99.90
12452;DHT22;6291;48.924;12.204;2023-07-29T15:21:45;23.80;99.90
12452;DHT22;6291;48.924;12.204;2023-07-29T15:26:49;24.00;99.90
12452;DHT22;6291;48.924;12.204;2023-07-29T15:31:52;24.10;99.90
12452;DHT22;6291;48.924;12.204;2023-07-29T15:36:57;23.40;99.90
12452;DHT22;6291;48.924;12.204;2023-07-29T15:42:00;23.30;99.90
12452;DHT22;6291;48.924;12.204;2023-07-29T15:47:04;23.20;99.90
12452;DHT22;6291;48.924;12.204;2023-07-29T15:52:09;23.50;99.90
12452;DHT22;6291;48.924;12.204;2023-07-29T15:57:14;23.10;99.90
12452;DHT22;6291;48.924;12.204;2023-07-29T16:02:17;22.90;99.90
12452;DHT22;6291;48.924;12.204;2023-07-29T16:07:22;22.90;99.90
12452;DHT22;6291;48.924;12.204;2023-07-29T16:12:25;22.80;99.90
12452;DHT22;6291;48.924;12.204;2023-07-29T16:17:28;22.90;99.90
12452;DHT22;6291;48.924;12.204;2023-07-29T16:22:33;22.90;99.90
12452;DHT22;6291;48.924;12.204;2023-07-29T16:27:37;23.30;99.90
12452;DHT22;6291;48.924;12.204;2023-07-29T16:32:41;23.40;99.90
12452;DHT22;6291;48.924;12.204;2023-07-29T16:37:46;23.30;99.90
12452;DHT22;6291;48.924;12.204;2023-07-29T16:42:52;23.40;99.90
12452;DHT22;6291;48.924;12.204;2023-07-29T16:47:55;23.10;99.90
12452;DHT22;6291;48.924;12.204;2023-07-29T16:53:00;23.10;99.90
12452;DHT22;6291;48.924;12.204;2023-07-29T16:58:03;23.00;99.90
12452;DHT22;6291;48.924;12.204;2023-07-29T17:03:06;23.00;99.90
12452;DHT22;6291;48.924;12.204;2023-07-29T17:08:11;22.90;99.90
12452;DHT22;6291;48.924;12.204;2023-07-29T17:13:15;22.90;99.90
12452;DHT22;6291;48.924;12.204;2023-07-29T17:18:18;22.80;99.90
12452;DHT22;6291;48.924;12.204;2023-07-29T17:23:23;22.80;99.90
12452;DHT22;6291;48.924;12.204;2023-07-29T17:28:26;18.80;99.90
12452;DHT22;6291;48.924;12.204;2023-07-29T17:33:30;22.50;99.90
12452;DHT22;6291;48.924;12.204;2023-07-29T17:38:34;22.40;99.90
12452;DHT22;6291;48.924;12.204;2023-07-29T17:43:38;22.40;99.90
12452;DHT22;6291;48.924;12.204;2023-07-29T17:48:47;22.40;99.90
12452;DHT22;6291;48.924;12.204;2023-07-29T17:53:52;22.40;99.90
12452;DHT22;6291;48.924;12.204;2023-07-29T17:58:56;22.20;99.90
12452;DHT22;6291;48.924;12.204;2023-07-29T18:03:59;22.10;99.90
12452;DHT22;6291;48.924;12.204;2023-07-29T18:09:04;22.00;99.90
12452;DHT22;6291;48.924;12.204;2023-07-29T18:14:07;21.80;99.90
12452;DHT22;6291;48.924;12.204;2023-07-29T18:19:10;21.60;99.90
12452;DHT22;6291;48.924;12.204;2023-07-29T18:24:18;23.60;99.90
12452;DHT22;6291;48.924;12.204;2023-07-29T18:29:21;21.20;1.00
12452;DHT22;6291;48.924;12.204;2023-07-29T18:34:25;20.90;1.00
12452;DHT22;6291;48.924;12.204;2023-07-29T18:39:30;20.60;1.00
12452;DHT22;6291;48.924;12.204;2023-07-29T18:44:34;20.20;99.90
12452;DHT22;6291;48.924;12.204;2023-07-29T18:49:37;19.80;1.00
12452;DHT22;6291;48.924;12.204;2023-07-29T18:54:42;19.60;99.90
12452;DHT22;6291;48.924;12.204;2023-07-29T18:59:47;19.50;1.00
12452;DHT22;6291;48.924;12.204;2023-07-29T19:04:51;19.40;1.00
12452;DHT22;6291;48.924;12.204;2023-07-29T19:09:56;19.20;99.90
12452;DHT22;6291;48.924;12.204;2023-07-29T19:14:59;19.10;1.00
12452;DHT22;6291;48.924;12.204;2023-07-29T19:20:04;19.10;1.00
12452;DHT22;6291;48.924;12.204;2023-07-29T19:25:09;19.00;16.30
12452;DHT22;6291;48.924;12.204;2023-07-29T19:30:13;18.80;99.90
12452;DHT22;6291;48.924;12.204;2023-07-29T19:35:17;18.80;99.90
12452;DHT22;6291;48.924;12.204;2023-07-29T19:40:22;18.70;99.90
12452;DHT22;6291;48.924;12.204;2023-07-29T19:45:25;18.80;99.90
12452;DHT22;6291;48.924;12.204;2023-07-29T19:50:29;18.70;99.90
12452;DHT22;6291;48.924;12.204;2023-07-29T19:55:34;18.80;93.40
12452;DHT22;6291;48.924;12.204;2023-07-29T20:00:38;18.70;6.00
12452;DHT22;6291;48.924;12.204;2023-07-29T20:05:41;17.00;55.30
12452;DHT22;6291;48.924;12.204;2023-07-29T20:10:46;18.60;1.00
12452;DHT22;6291;48.924;12.204;2023-07-29T20:15:50;18.60;1.00
12452;DHT22;6291;48.924;12.204;2023-07-29T20:20:54;18.60;1.00
12452;DHT22;6291;48.924;12.204;2023-07-29T20:25:59;18.50;1.00
12452;DHT22;6291;48.924;12.204;2023-07-29T20:31:02;18.50;1.00
12452;DHT22;6291;48.924;12.204;2023-07-29T20:36:05;18.40;1.00
12452;DHT22;6291;48.924;12.204;2023-07-29T20:41:10;18.30;28.60
12452;DHT22;6291;48.924;12.204;2023-07-29T20:46:18;18.30;91.90
12452;DHT22;6291;48.924;12.204;2023-07-29T20:51:22;18.30;99.90
12452;DHT22;6291;48.924;12.204;2023-07-29T20:56:27;18.30;99.90
12452;DHT22;6291;48.924;12.204;2023-07-29T21:01:31;18.30;99.90
12452;DHT22;6291;48.924;12.204;2023-07-29T21:06:36;18.40;99.90
12452;DHT22;6291;48.924;12.204;2023-07-29T21:11:41;18.50;99.90
12452;DHT22;6291;48.924;12.204;2023-07-29T21:16:44;18.40;99.90
12452;DHT22;6291;48.924;12.204;2023-07-29T21:21:48;18.40;99.90
12452;DHT22;6291;48.924;12.204;2023-07-29T21:26:53;18.30;99.90
12452;DHT22;6291;48.924;12.204;2023-07-29T21:31:56;18.40;99.90
12452;DHT22;6291;48.924;12.204;2023-07-29T21:36:59;18.40;99.90
12452;DHT22;6291;48.924;12.204;2023-07-29T21:42:07;18.40;99.90
12452;DHT22;6291;48.924;12.204;2023-07-29T21:47:11;18.40;99.90
12452;DHT22;6291;48.924;12.204;2023-07-29T21:52:14;18.40;99.90
12452;DHT22;6291;48.924;12.204;2023-07-29T21:57:19;18.40;99.90
12452;DHT22;6291;48.924;12.204;2023-07-29T22:02:22;18.30;99.90
12452;DHT22;6291;48.924;12.204;2023-07-29T22:07:25;18.30;99.90
12452;DHT22;6291;48.924;12.204;2023-07-29T22:12:31;18.20;99.90
12452;DHT22;6291;48.924;12.204;2023-07-29T22:17:34;18.20;99.90
12452;DHT22;6291;48.924;12.204;2023-07-29T22:22:38;18.20;99.90
12452;DHT22;6291;48.924;12.204;2023-07-29T22:27:43;18.20;99.90
12452;DHT22;6291;48.924;12.204;2023-07-29T22:32:47;18.20;99.90
12452;DHT22;6291;48.924;12.204;2023-07-29T22:37:50;18.20;99.90
12452;DHT22;6291;48.924;12.204;2023-07-29T22:42:55;18.10;99.90
12452;DHT22;6291;48.924;12.204;2023-07-29T22:47:58;18.10;99.90
12452;DHT22;6291;48.924;12.204;2023-07-29T22:53:02;18.20;99.90
12452;DHT22;6291;48.924;12.204;2023-07-29T22:58:09;18.30;99.90
12452;DHT22;6291;48.924;12.204;2023-07-29T23:03:13;18.50;99.90
12452;DHT22;6291;48.924;12.204;2023-07-29T23:08:17;18.40;99.90
12452;DHT22;6291;48.924;12.204;2023-07-29T23:13:22;18.50;99.90
12452;DHT22;6291;48.924;12.204;2023-07-29T23:18:25;18.40;99.90
12452;DHT22;6291;48.924;12.204;2023-07-29T23:23:29;18.40;99.90
12452;DHT22;6291;48.924;12.204;2023-07-29T23:28:34;18.50;99.90
12452;DHT22;6291;48.924;12.204;2023-07-29T23:33:37;18.10;99.90
12452;DHT22;6291;48.924;12.204;2023-07-29T23:38:41;18.30;99.90
12452;DHT22;6291;48.924;12.204;2023-07-29T23:43:46;18.20;99.90
12452;DHT22;6291;48.924;12.204;2023-07-29T23:48:49;18.00;99.90
12452;DHT22;6291;48.924;12.204;2023-07-29T23:53:52;17.90;99.90
12452;DHT22;6291;48.924;12.204;2023-07-29T23:58:57;17.80;99.90
